Jordan Valley, OR

8:34 PM MDT on August 30, 2015 (GMT -0600)
Rome State | | Change Station
CLOSE
Current Station
Airport
Location: Rome,
Elevation: 4049 ft
Nearby Weather Stations

Elev 4049 ft 42.59 °N, 117.86 °W | Updated 42 minutes ago

Clear
Clear
77 °F
Feels Like 77 °F
N
13
Wind Variable Wind from West
Gusts 22 mph

Today
High -- | Low -- °F
--% Chance of Precip.
Yesterday
High -- | Low -- °F
Precip. -- in
7:14 AM 8:29 PM
Full, 97% visible
Pressure 29.89 in
Visibility -9999.0 miles
Clouds
Dew Point 23 °F
Humidity 13%
Rainfall 0.00 in
Snow Depth Not available.
UV Not available.
Pollen 5.10 out of 12
Air Quality Not available.
Flu Activity Not available.
METAR KREO 310152Z AUTO 26011G19KT 25/M05 A2999 RMK AO1 SLP121 T02501050
Pressure 29.89 in
Visibility -9999.0 miles
Clouds
Dew Point 23 °F
Humidity 13%
Rainfall 0.00 in
Snow Depth Not available.
UV Not available.
Pollen 5.10 out of 12
Air Quality Not available.
Flu Activity Not available.
METAR KREO 310152Z AUTO 26011G19KT 25/M05 A2999 RMK AO1 SLP121 T02501050

10-Day Weather Forecast

×

Almanac

Astronomy

Aug. 30, 2015 Rise Set
Actual Time
Civil Twilight
Nautical Twilight
Astronomical Twilight
Moon
Length of Visible Light
Length of Day
Tomorrow will be .
, % of the Moon is Illuminated

Today's Extremes

State Highs State Lows

Community

WunderPhotos

Upload Photos

1,851,164 photos uploaded!

WunderBlogs® & News

Nearby

Air Quality

  Air Quality AQ Index Pollutant
Not available.

Snow Depth

Station Depth Elevation

Earthquake Activity

City Distance Mag. Time & Date
Minimum magnitude displayed is 2.5.

Coastal Water Temperatures

Place Temperature

Stations

Nearby Weather Stations

Station Location Temp. Windchill Dew Point Humidity Wind Precip. Elev Updated Type